createdAt,value
2023-05-05T05:47:00.886Z,100881.81
2023-05-05T05:52:03.095Z,100894.84
2023-05-05T05:57:05.178Z,100894.78
2023-05-05T06:02:07.837Z,100873.69
2023-05-05T06:07:10.000Z,100887.38
2023-05-05T06:12:12.091Z,100886.41
2023-05-05T06:17:14.263Z,100889.97
2023-05-05T06:22:16.467Z,100898.34
2023-05-05T06:27:18.499Z,100891.37
2023-05-05T06:32:20.663Z,100874.25
2023-05-05T06:37:22.797Z,100883.63
2023-05-05T06:42:24.844Z,100874.09
2023-05-05T06:47:26.937Z,100867.59
2023-05-05T06:52:29.217Z,100865.50
2023-05-05T06:57:31.362Z,100875.22
2023-05-05T07:02:33.911Z,100873.94
2023-05-05T07:07:36.509Z,100874.81
2023-05-05T07:12:38.650Z,100870.50
2023-05-05T07:17:41.172Z,100879.84
2023-05-05T07:22:43.241Z,100880.16
2023-05-05T07:27:45.434Z,100862.41
2023-05-05T07:32:47.793Z,100869.75
2023-05-05T07:37:49.934Z,100867.03
2023-05-05T07:42:52.280Z,100857.69
2023-05-05T07:47:54.568Z,100857.66
2023-05-05T07:53:06.181Z,100859.22
2023-05-05T07:58:16.174Z,100870.91
2023-05-05T08:03:20.523Z,100868.69
2023-05-05T08:08:24.974Z,100866.94
2023-05-05T08:13:28.786Z,100871.69
2023-05-05T08:18:30.881Z,100862.22
2023-05-05T08:23:36.249Z,100875.66
2023-05-05T08:28:38.331Z,100860.81
2023-05-05T08:33:40.422Z,100852.59
2023-05-05T08:38:42.489Z,100850.81
2023-05-05T08:43:46.873Z,100852.53
2023-05-05T08:48:51.791Z,100852.25
2023-05-05T08:54:07.000Z,100852.53
2023-05-05T08:59:11.909Z,100857.34
2023-05-05T09:04:14.305Z,100863.19
2023-05-05T09:09:17.532Z,100857.34
2023-05-05T09:14:19.622Z,100835.94
2023-05-05T09:19:21.670Z,100843.22
2023-05-05T09:24:23.992Z,100837.81
2023-05-05T09:29:26.295Z,100838.97
2023-05-05T09:34:28.718Z,100826.06
2023-05-05T09:39:30.818Z,100829.97
2023-05-05T09:44:37.652Z,100817.31
2023-05-05T09:49:39.842Z,100807.56
2023-05-05T09:54:43.353Z,100813.50
2023-05-05T09:59:56.962Z,100810.91
2023-05-05T10:05:05.258Z,100813.50
2023-05-05T10:10:12.559Z,100808.09
2023-05-05T10:15:15.660Z,100804.69
2023-05-05T10:20:19.253Z,100813.31
2023-05-05T10:25:33.696Z,100789.16
2023-05-05T10:30:44.168Z,100793.81
2023-05-05T10:35:52.787Z,100791.78
2023-05-05T10:40:56.495Z,100788.53
2023-05-05T10:45:59.510Z,100771.19
2023-05-05T10:51:40.116Z,100768.31
2023-05-05T10:56:43.468Z,100760.88
2023-05-05T11:01:45.993Z,100745.19
2023-05-05T11:07:12.664Z,100750.47
2023-05-05T11:12:16.892Z,100747.69
2023-05-05T11:17:44.245Z,100729.81
2023-05-05T11:23:05.011Z,100730.34
2023-05-05T11:28:18.298Z,100734.88
2023-05-05T11:33:31.042Z,100719.84
2023-05-05T11:38:48.180Z,100716.38
2023-05-05T11:43:50.414Z,100720.97
2023-05-05T11:48:53.552Z,100711.66
2023-05-05T11:53:57.855Z,100701.31
2023-05-05T11:59:09.874Z,100698.09
2023-05-05T12:04:13.015Z,100700.81
2023-05-05T12:09:22.667Z,100689.69
2023-05-05T12:14:25.771Z,100685.19
2023-05-05T12:19:33.440Z,100683.38
2023-05-05T12:24:35.679Z,100675.13
2023-05-05T12:29:37.988Z,100665.97
2023-05-05T12:34:40.073Z,100676.59
2023-05-05T12:39:42.253Z,100676.38
2023-05-05T12:44:44.916Z,100656.41
2023-05-05T12:49:51.787Z,100647.50
2023-05-05T12:55:00.186Z,100645.34
2023-05-05T13:00:14.771Z,100640.78
2023-05-05T13:05:29.571Z,100637.53
2023-05-05T13:10:31.733Z,100631.16
2023-05-05T13:15:33.908Z,100611.31
2023-05-05T13:20:36.019Z,100609.31
2023-05-05T13:25:38.094Z,100607.31
2023-05-05T13:30:41.855Z,100603.97
2023-05-05T13:35:43.922Z,100594.13
2023-05-05T13:40:46.136Z,100597.84
2023-05-05T13:45:48.283Z,100591.56
2023-05-05T13:50:50.492Z,100579.69
2023-05-05T13:55:52.617Z,100571.06
2023-05-05T14:00:55.398Z,100570.47
2023-05-05T14:05:57.534Z,100573.91
2023-05-05T14:10:59.631Z,100562.44
2023-05-05T14:16:01.720Z,100570.69
2023-05-05T14:21:03.910Z,100560.13
2023-05-05T14:26:06.035Z,100566.50
2023-05-05T14:31:08.127Z,100562.69
2023-05-05T14:36:10.304Z,100562.47
2023-05-05T14:41:12.364Z,100541.78
2023-05-05T14:46:14.603Z,100548.06
2023-05-05T14:51:16.904Z,100542.19
2023-05-05T14:56:21.828Z,100539.88
2023-05-05T15:01:25.776Z,100533.88
2023-05-05T15:06:28.138Z,100532.94
2023-05-05T15:11:30.239Z,100532.88
2023-05-05T15:16:34.546Z,100534.78
2023-05-05T15:21:37.362Z,100530.62
2023-05-05T15:26:39.452Z,100524.03
2023-05-05T15:31:41.771Z,100535.78
2023-05-05T15:36:43.922Z,100521.75
2023-05-05T15:41:45.985Z,100517.25
2023-05-05T15:46:50.385Z,100522.09
2023-05-05T15:51:52.688Z,100501.75
2023-05-05T15:56:55.042Z,100503.03
2023-05-05T16:01:57.126Z,100507.75
2023-05-05T16:06:59.593Z,100505.47
2023-05-05T16:12:02.661Z,100507.41
2023-05-05T16:17:04.774Z,100502.53
2023-05-05T16:22:07.731Z,100484.97
2023-05-05T16:27:09.844Z,100503.47
2023-05-05T16:32:12.113Z,100497.75
2023-05-05T16:37:14.148Z,100487.53
2023-05-05T16:42:16.467Z,100479.38
2023-05-05T16:47:18.557Z,100487.00
2023-05-05T16:52:20.669Z,100488.59
2023-05-05T16:57:23.120Z,100482.31
2023-05-05T17:02:25.244Z,100502.59
2023-05-05T17:07:27.788Z,100492.41
2023-05-05T17:12:29.873Z,100487.25
2023-05-05T17:17:32.018Z,100492.47
2023-05-05T17:22:34.100Z,100491.03
2023-05-05T17:27:36.156Z,100492.81
2023-05-05T17:32:38.589Z,100486.00
2023-05-05T17:37:41.173Z,100489.69
2023-05-05T17:42:43.245Z,100497.13
2023-05-05T17:47:45.325Z,100492.38
2023-05-05T17:52:47.475Z,100491.22
2023-05-05T17:57:49.595Z,100491.13
2023-05-05T18:02:51.782Z,100493.81
2023-05-05T18:07:54.037Z,100494.84
2023-05-05T18:12:56.204Z,100497.38
2023-05-05T18:17:58.300Z,100496.44
2023-05-05T18:23:00.527Z,100496.75
2023-05-05T18:28:02.599Z,100488.19
2023-05-05T18:33:05.208Z,100508.28
2023-05-05T18:38:07.347Z,100499.97
2023-05-05T18:43:09.733Z,100511.19
2023-05-05T18:48:11.911Z,100514.87
2023-05-05T18:53:14.925Z,100520.16
2023-05-05T18:58:17.542Z,100516.31
2023-05-05T19:03:20.271Z,100517.06
2023-05-05T19:08:22.631Z,100539.00
2023-05-05T19:13:24.677Z,100529.38
2023-05-05T19:18:27.070Z,100546.91
2023-05-05T19:23:29.190Z,100545.13
2023-05-05T19:28:31.826Z,100539.28
2023-05-05T19:33:33.884Z,100532.06
2023-05-05T19:38:36.605Z,100545.94
2023-05-05T19:43:38.914Z,100530.31
2023-05-05T19:48:40.993Z,100530.00
2023-05-05T19:53:43.074Z,100548.78
2023-05-05T19:59:00.440Z,100542.06
2023-05-05T20:04:03.772Z,100534.06
